sensor_id;sensor_type;location;lat;lon;timestamp;pressure;altitude;pressure_sealevel;temperature;humidity
44144;BME280;68165;51.920;4.492;2023-06-26T00:00:18;68901.09;;;27.40;54.95
44144;BME280;68165;51.920;4.492;2023-06-26T00:02:44;68885.53;;;27.31;55.86
44144;BME280;68165;51.920;4.492;2023-06-26T00:05:10;68875.94;;;27.22;56.66
44144;BME280;68165;51.920;4.492;2023-06-26T00:07:35;68868.59;;;27.15;57.10
44144;BME280;68165;51.920;4.492;2023-06-26T00:10:02;68862.22;;;27.07;57.17
44144;BME280;68165;51.920;4.492;2023-06-26T00:12:28;68848.97;;;26.91;56.89
44144;BME280;68165;51.920;4.492;2023-06-26T00:14:54;68844.16;;;26.91;56.41
44144;BME280;68165;51.920;4.492;2023-06-26T00:17:20;68835.66;;;26.83;55.81
44144;BME280;68165;51.920;4.492;2023-06-26T00:19:46;68829.44;;;26.78;55.23
44144;BME280;68165;51.920;4.492;2023-06-26T00:22:11;68827.16;;;26.76;54.63
44144;BME280;68165;51.920;4.492;2023-06-26T00:24:37;68820.84;;;26.68;54.89
44144;BME280;68165;51.920;4.492;2023-06-26T00:27:02;68811.78;;;26.60;55.81
44144;BME280;68165;51.920;4.492;2023-06-26T00:29:28;68812.91;;;26.61;56.42
44144;BME280;68165;51.920;4.492;2023-06-26T00:31:53;68802.88;;;26.54;56.93
44144;BME280;68165;51.920;4.492;2023-06-26T00:34:18;68803.88;;;26.53;56.79
44144;BME280;68165;51.920;4.492;2023-06-26T00:36:44;68796.53;;;26.46;57.05
44144;BME280;68165;51.920;4.492;2023-06-26T00:39:10;68788.34;;;26.44;57.55
44144;BME280;68165;51.920;4.492;2023-06-26T00:41:37;68782.69;;;26.38;58.45
44144;BME280;68165;51.920;4.492;2023-06-26T00:44:04;68778.72;;;26.35;59.67
44144;BME280;68165;51.920;4.492;2023-06-26T00:46:29;68772.25;;;26.24;60.19
44144;BME280;68165;51.920;4.492;2023-06-26T00:48:55;68758.94;;;26.17;60.75
44144;BME280;68165;51.920;4.492;2023-06-26T00:51:21;68754.28;;;26.11;61.19
44144;BME280;68165;51.920;4.492;2023-06-26T00:53:47;68754.72;;;26.09;61.53
44144;BME280;68165;51.920;4.492;2023-06-26T00:56:13;68749.94;;;26.09;61.79
44144;BME280;68165;51.920;4.492;2023-06-26T00:58:40;68750.63;;;26.02;62.55
44144;BME280;68165;51.920;4.492;2023-06-26T01:01:05;68739.19;;;25.99;62.56
44144;BME280;68165;51.920;4.492;2023-06-26T01:03:33;68734.09;;;25.95;62.98
44144;BME280;68165;51.920;4.492;2023-06-26T01:05:59;68728.88;;;25.88;63.70
44144;BME280;68165;51.920;4.492;2023-06-26T01:08:26;68718.28;;;25.81;64.09
44144;BME280;68165;51.920;4.492;2023-06-26T01:10:52;68713.63;;;25.74;64.52
44144;BME280;68165;51.920;4.492;2023-06-26T01:13:17;68713.50;;;25.72;64.52
44144;BME280;68165;51.920;4.492;2023-06-26T01:15:43;68708.72;;;25.72;65.05
44144;BME280;68165;51.920;4.492;2023-06-26T01:18:08;68713.94;;;25.70;65.10
44144;BME280;68165;51.920;4.492;2023-06-26T01:20:38;68704.19;;;25.68;65.36
44144;BME280;68165;51.920;4.492;2023-06-26T01:28:18;68706.75;;;25.66;66.16
44144;BME280;68165;51.920;4.492;2023-06-26T01:30:45;68692.91;;;25.58;66.29
44144;BME280;68165;51.920;4.492;2023-06-26T01:33:13;68694.31;;;25.54;66.79
44144;BME280;68165;51.920;4.492;2023-06-26T01:35:39;68691.19;;;25.56;67.19
44144;BME280;68165;51.920;4.492;2023-06-26T01:38:15;68703.63;;;25.68;67.15
44144;BME280;68165;51.920;4.492;2023-06-26T01:40:41;68697.44;;;25.62;66.90
44144;BME280;68165;51.920;4.492;2023-06-26T01:43:14;68693.88;;;25.56;67.38
44144;BME280;68165;51.920;4.492;2023-06-26T01:45:41;68686.53;;;25.50;67.30
44144;BME280;68165;51.920;4.492;2023-06-26T01:48:09;68676.50;;;25.43;67.81
44144;BME280;68165;51.920;4.492;2023-06-26T01:50:37;68677.34;;;25.39;68.19
44144;BME280;68165;51.920;4.492;2023-06-26T01:53:12;68672.00;;;25.39;68.16
44144;BME280;68165;51.920;4.492;2023-06-26T01:58:06;68664.53;;;25.30;68.61
44144;BME280;68165;51.920;4.492;2023-06-26T02:00:32;68659.00;;;25.28;68.74
44144;BME280;68165;51.920;4.492;2023-06-26T02:02:58;68659.44;;;25.26;68.84
44144;BME280;68165;51.920;4.492;2023-06-26T02:05:24;68656.06;;;25.23;68.70
44144;BME280;68165;51.920;4.492;2023-06-26T02:07:49;68649.44;;;25.19;69.11
44144;BME280;68165;51.920;4.492;2023-06-26T02:10:16;68644.78;;;25.12;69.49
44144;BME280;68165;51.920;4.492;2023-06-26T02:12:41;68641.38;;;25.09;69.50
44144;BME280;68165;51.920;4.492;2023-06-26T02:15:07;68636.19;;;25.02;70.02
44144;BME280;68165;51.920;4.492;2023-06-26T02:17:33;68626.56;;;24.94;69.83
44144;BME280;68165;51.920;4.492;2023-06-26T02:19:58;68620.66;;;24.93;70.17
44144;BME280;68165;51.920;4.492;2023-06-26T02:22:24;68628.41;;;24.98;69.87
44144;BME280;68165;51.920;4.492;2023-06-26T02:24:49;68628.41;;;24.98;69.60
44144;BME280;68165;51.920;4.492;2023-06-26T02:27:14;68632.22;;;24.99;69.46
44144;BME280;68165;51.920;4.492;2023-06-26T02:29:40;68630.25;;;25.02;69.04
44144;BME280;68165;51.920;4.492;2023-06-26T02:32:06;68632.50;;;25.04;68.71
44144;BME280;68165;51.920;4.492;2023-06-26T02:34:32;68631.34;;;25.03;68.41
44144;BME280;68165;51.920;4.492;2023-06-26T02:36:58;68627.97;;;25.00;68.39
44144;BME280;68165;51.920;4.492;2023-06-26T02:39:24;68627.41;;;24.99;68.11
44144;BME280;68165;51.920;4.492;2023-06-26T02:41:49;68629.81;;;25.04;68.15
44144;BME280;68165;51.920;4.492;2023-06-26T02:44:14;68635.16;;;25.04;67.98
44144;BME280;68165;51.920;4.492;2023-06-26T02:46:40;68631.09;;;24.98;67.97
44144;BME280;68165;51.920;4.492;2023-06-26T02:49:06;68627.28;;;24.97;67.80
44144;BME280;68165;51.920;4.492;2023-06-26T02:51:32;68622.06;;;24.90;68.14
44144;BME280;68165;51.920;4.492;2023-06-26T02:53:58;68610.34;;;24.81;68.14
44144;BME280;68165;51.920;4.492;2023-06-26T02:56:23;68603.56;;;24.75;68.71
44144;BME280;68165;51.920;4.492;2023-06-26T02:58:48;68594.81;;;24.63;69.16
44144;BME280;68165;51.920;4.492;2023-06-26T03:01:14;68588.19;;;24.59;69.64
44144;BME280;68165;51.920;4.492;2023-06-26T03:03:41;68582.84;;;24.59;69.66
44144;BME280;68165;51.920;4.492;2023-06-26T03:06:07;68576.47;;;24.51;69.89
44144;BME280;68165;51.920;4.492;2023-06-26T03:08:33;68572.53;;;24.48;70.37
44144;BME280;68165;51.920;4.492;2023-06-26T03:10:58;68560.97;;;24.42;70.28
44144;BME280;68165;51.920;4.492;2023-06-26T03:13:23;68556.75;;;24.33;70.75
44144;BME280;68165;51.920;4.492;2023-06-26T03:15:49;68558.84;;;24.33;70.95
44144;BME280;68165;51.920;4.492;2023-06-26T03:18:14;68548.28;;;24.26;71.19
44144;BME280;68165;51.920;4.492;2023-06-26T03:20:40;68546.03;;;24.24;71.21
44144;BME280;68165;51.920;4.492;2023-06-26T03:23:05;68542.78;;;24.23;71.22
44144;BME280;68165;51.920;4.492;2023-06-26T03:25:30;68545.03;;;24.25;70.97
44144;BME280;68165;51.920;4.492;2023-06-26T03:27:56;68542.22;;;24.23;71.15
44144;BME280;68165;51.920;4.492;2023-06-26T03:30:21;68546.31;;;24.19;70.91
44144;BME280;68165;51.920;4.492;2023-06-26T03:32:46;68533.06;;;24.12;71.16
44144;BME280;68165;51.920;4.492;2023-06-26T03:35:12;68526.84;;;24.07;71.25
44144;BME280;68165;51.920;4.492;2023-06-26T03:37:37;68519.50;;;24.00;71.54
44144;BME280;68165;51.920;4.492;2023-06-26T03:40:03;68517.81;;;23.98;71.42
44144;BME280;68165;51.920;4.492;2023-06-26T03:42:29;68517.09;;;23.95;71.26
44144;BME280;68165;51.920;4.492;2023-06-26T03:44:56;68510.50;;;23.92;71.16
44144;BME280;68165;51.920;4.492;2023-06-26T03:47:21;68501.59;;;23.86;71.35
44144;BME280;68165;51.920;4.492;2023-06-26T03:49:46;68508.66;;;23.88;70.89
44144;BME280;68165;51.920;4.492;2023-06-26T03:52:12;68502.03;;;23.84;70.94
44144;BME280;68165;51.920;4.492;2023-06-26T03:54:37;68500.47;;;23.85;70.84
44144;BME280;68165;51.920;4.492;2023-06-26T03:57:02;68506.41;;;23.86;70.51
44144;BME280;68165;51.920;4.492;2023-06-26T03:59:28;68506.28;;;23.83;70.48
44144;BME280;68165;51.920;4.492;2023-06-26T04:01:56;68499.78;;;23.82;70.38
44144;BME280;68165;51.920;4.492;2023-06-26T04:04:21;68505.84;;;23.85;69.72
44144;BME280;68165;51.920;4.492;2023-06-26T04:06:47;68502.75;;;23.87;69.50
44144;BME280;68165;51.920;4.492;2023-06-26T04:09:12;68504.28;;;23.86;68.87
44144;BME280;68165;51.920;4.492;2023-06-26T04:11:37;68502.59;;;23.85;69.01
44144;BME280;68165;51.920;4.492;2023-06-26T04:14:03;68508.78;;;23.90;68.60
44144;BME280;68165;51.920;4.492;2023-06-26T04:16:28;68518.50;;;24.01;68.08
44144;BME280;68165;51.920;4.492;2023-06-26T04:18:53;68534.88;;;24.16;67.66
44144;BME280;68165;51.920;4.492;2023-06-26T04:21:21;68543.09;;;24.19;66.87
44144;BME280;68165;51.920;4.492;2023-06-26T04:23:48;68539.09;;;24.15;66.91
44144;BME280;68165;51.920;4.492;2023-06-26T04:26:14;68535.84;;;24.15;66.39
44144;BME280;68165;51.920;4.492;2023-06-26T04:28:40;68527.41;;;24.07;66.46
44144;BME280;68165;51.920;4.492;2023-06-26T04:31:05;68520.66;;;24.01;66.01
44144;BME280;68165;51.920;4.492;2023-06-26T04:33:30;68520.09;;;24.00;66.14
44144;BME280;68165;51.920;4.492;2023-06-26T04:35:56;68516.69;;;23.97;66.08
44144;BME280;68165;51.920;4.492;2023-06-26T04:38:22;68518.81;;;23.97;66.32
44144;BME280;68165;51.920;4.492;2023-06-26T04:40:48;68531.06;;;24.06;65.87
44144;BME280;68165;51.920;4.492;2023-06-26T04:43:13;68541.50;;;24.20;65.42
44144;BME280;68165;51.920;4.492;2023-06-26T04:45:39;68554.06;;;24.33;64.82
44144;BME280;68165;51.920;4.492;2023-06-26T04:48:04;68565.34;;;24.44;64.67
44144;BME280;68165;51.920;4.492;2023-06-26T04:50:32;68571.53;;;24.49;64.32
44144;BME280;68165;51.920;4.492;2023-06-26T04:52:58;68571.00;;;24.49;64.03
44144;BME280;68165;51.920;4.492;2023-06-26T04:55:24;68576.47;;;24.51;64.28
44144;BME280;68165;51.920;4.492;2023-06-26T04:57:50;68577.19;;;24.54;63.91
44144;BME280;68165;51.920;4.492;2023-06-26T05:00:16;68586.50;;;24.58;64.24
44144;BME280;68165;51.920;4.492;2023-06-26T05:02:42;68592.13;;;24.63;64.20
44144;BME280;68165;51.920;4.492;2023-06-26T05:05:08;68596.38;;;24.71;64.10
44144;BME280;68165;51.920;4.492;2023-06-26T05:07:35;68603.84;;;24.71;64.41
44144;BME280;68165;51.920;4.492;2023-06-26T05:10:01;68608.06;;;24.79;63.93
44144;BME280;68165;51.920;4.492;2023-06-26T05:12:26;68619.50;;;24.92;63.92
44144;BME280;68165;51.920;4.492;2023-06-26T05:14:52;68629.94;;;24.97;63.55
44144;BME280;68165;51.920;4.492;2023-06-26T05:17:17;68629.69;;;25.01;63.65
44144;BME280;68165;51.920;4.492;2023-06-26T05:19:42;68637.00;;;25.08;63.32
44144;BME280;68165;51.920;4.492;2023-06-26T05:22:08;68650.56;;;25.20;62.94
44144;BME280;68165;51.920;4.492;2023-06-26T05:24:38;68660.00;;;25.26;62.94
44144;BME280;68165;51.920;4.492;2023-06-26T05:27:04;68660.72;;;25.29;61.97
44144;BME280;68165;51.920;4.492;2023-06-26T05:29:31;68676.38;;;25.41;60.63
44144;BME280;68165;51.920;4.492;2023-06-26T05:31:56;68696.00;;;25.56;59.56
44144;BME280;68165;51.920;4.492;2023-06-26T05:34:23;68717.03;;;25.77;57.53
44144;BME280;68165;51.920;4.492;2023-06-26T05:36:50;68715.59;;;25.81;55.52
44144;BME280;68165;51.920;4.492;2023-06-26T05:39:16;68707.56;;;25.71;54.25
44144;BME280;68165;51.920;4.492;2023-06-26T05:41:44;68697.97;;;25.63;54.09
44144;BME280;68165;51.920;4.492;2023-06-26T05:44:09;68709.69;;;25.71;53.02
44144;BME280;68165;51.920;4.492;2023-06-26T05:46:35;68744.81;;;26.05;51.56
44144;BME280;68165;51.920;4.492;2023-06-26T05:49:01;68784.81;;;26.38;50.11
44144;BME280;68165;51.920;4.492;2023-06-26T05:51:27;68796.69;;;26.49;49.35
44144;BME280;68165;51.920;4.492;2023-06-26T05:53:53;68802.47;;;26.56;48.34
44144;BME280;68165;51.920;4.492;2023-06-26T05:56:19;68795.41;;;26.45;48.60
44144;BME280;68165;51.920;4.492;2023-06-26T05:58:45;68781.28;;;26.32;48.21
44144;BME280;68165;51.920;4.492;2023-06-26T06:01:11;68794.00;;;26.49;47.82
44144;BME280;68165;51.920;4.492;2023-06-26T06:03:37;68810.91;;;26.64;47.15
44144;BME280;68165;51.920;4.492;2023-06-26T06:06:03;68796.94;;;26.54;46.90
44144;BME280;68165;51.920;4.492;2023-06-26T06:08:28;68802.75;;;26.52;46.51
44144;BME280;68165;51.920;4.492;2023-06-26T06:10:55;68787.78;;;26.43;46.54
44144;BME280;68165;51.920;4.492;2023-06-26T06:13:21;68774.22;;;26.31;46.98
44144;BME280;68165;51.920;4.492;2023-06-26T06:15:46;68769.84;;;26.29;47.07
44144;BME280;68165;51.920;4.492;2023-06-26T06:18:11;68781.56;;;26.37;46.75
44144;BME280;68165;51.920;4.492;2023-06-26T06:20:37;68778.31;;;26.37;46.67
44144;BME280;68165;51.920;4.492;2023-06-26T06:23:02;68774.53;;;26.26;46.77
44144;BME280;68165;51.920;4.492;2023-06-26T06:25:27;68767.72;;;26.20;46.96
44144;BME280;68165;51.920;4.492;2023-06-26T06:27:53;68764.47;;;26.20;47.05
44144;BME280;68165;51.920;4.492;2023-06-26T06:30:18;68761.06;;;26.17;47.21
44144;BME280;68165;51.920;4.492;2023-06-26T06:32:43;68761.06;;;26.17;46.94
44144;BME280;68165;51.920;4.492;2023-06-26T06:35:09;68768.84;;;26.21;46.59
44144;BME280;68165;51.920;4.492;2023-06-26T06:37:37;68803.03;;;26.57;45.96
44144;BME280;68165;51.920;4.492;2023-06-26T06:40:04;68844.56;;;26.89;44.24
44144;BME280;68165;51.920;4.492;2023-06-26T06:42:31;68856.56;;;27.02;44.19
44144;BME280;68165;51.920;4.492;2023-06-26T06:44:56;68865.63;;;27.10;43.79
44144;BME280;68165;51.920;4.492;2023-06-26T06:47:22;68863.78;;;27.06;43.15
44144;BME280;68165;51.920;4.492;2023-06-26T06:49:47;68856.00;;;27.02;42.84
44144;BME280;68165;51.920;4.492;2023-06-26T06:52:12;68852.19;;;27.01;42.77
44144;BME280;68165;51.920;4.492;2023-06-26T06:54:51;68846.53;;;26.96;42.51
44144;BME280;68165;51.920;4.492;2023-06-26T06:57:17;68840.16;;;26.88;42.59
44144;BME280;68165;51.920;4.492;2023-06-26T06:59:43;68845.28;;;26.92;42.69
44144;BME280;68165;51.920;4.492;2023-06-26T07:02:08;68849.78;;;26.96;42.50
44144;BME280;68165;51.920;4.492;2023-06-26T07:04:33;68853.63;;;26.97;42.64
44144;BME280;68165;51.920;4.492;2023-06-26T07:06:59;68840.75;;;26.88;42.69
44144;BME280;68165;51.920;4.492;2023-06-26T07:09:24;68826.06;;;26.75;42.73
44144;BME280;68165;51.920;4.492;2023-06-26T07:11:49;68813.19;;;26.66;43.16
44144;BME280;68165;51.920;4.492;2023-06-26T07:14:14;68811.38;;;26.62;43.71
44144;BME280;68165;51.920;4.492;2023-06-26T07:16:40;68823.78;;;26.73;43.26
44144;BME280;68165;51.920;4.492;2023-06-26T07:19:05;68840.31;;;26.90;43.08
44144;BME280;68165;51.920;4.492;2023-06-26T07:21:31;68846.97;;;26.94;43.11
44144;BME280;68165;51.920;4.492;2023-06-26T07:23:56;68831.25;;;26.82;43.52
44144;BME280;68165;51.920;4.492;2023-06-26T07:26:21;68823.91;;;26.75;43.65
44144;BME280;68165;51.920;4.492;2023-06-26T07:28:47;68834.41;;;26.80;44.09
44144;BME280;68165;51.920;4.492;2023-06-26T07:31:14;68850.38;;;26.97;43.80
44144;BME280;68165;51.920;4.492;2023-06-26T07:33:39;68852.75;;;27.01;44.03
44144;BME280;68165;51.920;4.492;2023-06-26T07:36:05;68867.88;;;27.12;43.62
44144;BME280;68165;51.920;4.492;2023-06-26T07:38:32;68890.50;;;27.33;43.01
44144;BME280;68165;51.920;4.492;2023-06-26T07:40:58;68928.25;;;27.64;42.14
44144;BME280;68165;51.920;4.492;2023-06-26T07:43:23;68968.50;;;28.02;40.65
44144;BME280;68165;51.920;4.492;2023-06-26T07:45:48;68988.88;;;28.21;40.48
44144;BME280;68165;51.920;4.492;2023-06-26T07:48:16;68990.03;;;28.22;40.74
44144;BME280;68165;51.920;4.492;2023-06-26T07:50:41;68991.59;;;28.21;40.56
44144;BME280;68165;51.920;4.492;2023-06-26T07:53:07;68980.25;;;28.11;41.06
44144;BME280;68165;51.920;4.492;2023-06-26T07:55:34;68975.72;;;28.07;41.00
44144;BME280;68165;51.920;4.492;2023-06-26T07:58:01;68956.78;;;27.94;41.15
44144;BME280;68165;51.920;4.492;2023-06-26T08:00:26;68955.09;;;27.93;41.44
44144;BME280;68165;51.920;4.492;2023-06-26T08:02:52;68948.88;;;27.87;41.27
44144;BME280;68165;51.920;4.492;2023-06-26T08:05:17;68939.81;;;27.79;41.46
44144;BME280;68165;51.920;4.492;2023-06-26T08:07:43;68959.03;;;27.96;41.22
44144;BME280;68165;51.920;4.492;2023-06-26T08:10:08;68969.22;;;28.06;40.73
44144;BME280;68165;51.920;4.492;2023-06-26T08:12:34;68955.66;;;27.93;40.77
44144;BME280;68165;51.920;4.492;2023-06-26T08:14:59;68944.78;;;27.81;41.06
44144;BME280;68165;51.920;4.492;2023-06-26T08:17:28;68932.34;;;27.70;40.97
44144;BME280;68165;51.920;4.492;2023-06-26T08:19:54;68925.81;;;27.69;41.23
44144;BME280;68165;51.920;4.492;2023-06-26T08:22:19;68944.31;;;27.83;40.74
44144;BME280;68165;51.920;4.492;2023-06-26T08:24:44;68961.16;;;27.96;40.29
44144;BME280;68165;51.920;4.492;2023-06-26T08:27:10;68960.03;;;27.95;40.41
44144;BME280;68165;51.920;4.492;2023-06-26T08:29:35;68966.25;;;28.00;40.03
44144;BME280;68165;51.920;4.492;2023-06-26T08:32:00;68981.09;;;28.16;39.52
44144;BME280;68165;51.920;4.492;2023-06-26T08:34:27;69030.19;;;28.58;38.45
44144;BME280;68165;51.920;4.492;2023-06-26T08:36:52;69078.88;;;29.01;37.64
44144;BME280;68165;51.920;4.492;2023-06-26T08:39:18;69141.69;;;29.57;36.52
44144;BME280;68165;51.920;4.492;2023-06-26T08:41:44;69129.81;;;29.47;36.48
44144;BME280;68165;51.920;4.492;2023-06-26T08:44:09;69127.28;;;29.40;36.40
44144;BME280;68165;51.920;4.492;2023-06-26T08:46:35;69097.66;;;29.20;36.63
44144;BME280;68165;51.920;4.492;2023-06-26T08:49:05;69078.41;;;29.03;36.77
44144;BME280;68165;51.920;4.492;2023-06-26T08:51:34;69073.19;;;28.96;36.87
44144;BME280;68165;51.920;4.492;2023-06-26T08:54:02;69066.53;;;28.93;36.86
44144;BME280;68165;51.920;4.492;2023-06-26T08:56:38;69074.03;;;29.02;37.07
44144;BME280;68165;51.920;4.492;2023-06-26T08:59:07;69090.56;;;29.19;35.89
44144;BME280;68165;51.920;4.492;2023-06-26T09:01:33;69103.03;;;29.20;35.94
44144;BME280;68165;51.920;4.492;2023-06-26T09:03:59;69113.94;;;29.33;35.68
44144;BME280;68165;51.920;4.492;2023-06-26T09:06:24;69121.88;;;29.40;35.75
44144;BME280;68165;51.920;4.492;2023-06-26T09:08:49;69097.94;;;29.26;35.89
44144;BME280;68165;51.920;4.492;2023-06-26T09:11:15;69091.88;;;29.13;36.24
44144;BME280;68165;51.920;4.492;2023-06-26T09:13:40;69065.41;;;28.92;36.10
44144;BME280;68165;51.920;4.492;2023-06-26T09:16:07;69058.03;;;28.85;36.67
44144;BME280;68165;51.920;4.492;2023-06-26T09:18:33;69079.97;;;29.02;36.03
44144;BME280;68165;51.920;4.492;2023-06-26T09:20:58;69094.81;;;29.18;36.07
44144;BME280;68165;51.920;4.492;2023-06-26T09:23:24;69068.09;;;28.92;36.29
44144;BME280;68165;51.920;4.492;2023-06-26T09:25:51;69033.44;;;28.58;36.85
44144;BME280;68165;51.920;4.492;2023-06-26T09:28:19;69019.44;;;28.48;37.33
44144;BME280;68165;51.920;4.492;2023-06-26T09:30:45;69024.66;;;28.55;37.14
44144;BME280;68165;51.920;4.492;2023-06-26T09:33:16;69050.13;;;28.78;36.86
44144;BME280;68165;51.920;4.492;2023-06-26T09:35:43;69074.03;;;29.02;36.12
44144;BME280;68165;51.920;4.492;2023-06-26T09:38:08;69054.53;;;28.79;36.45
44144;BME280;68165;51.920;4.492;2023-06-26T09:40:33;69020.56;;;28.49;36.68
44144;BME280;68165;51.920;4.492;2023-06-26T09:43:07;69012.09;;;28.41;37.16
44144;BME280;68165;51.920;4.492;2023-06-26T09:45:34;68998.50;;;28.29;36.95
44144;BME280;68165;51.920;4.492;2023-06-26T09:48:01;69001.22;;;28.29;37.03
44144;BME280;68165;51.920;4.492;2023-06-26T09:50:28;69001.34;;;28.32;36.82
44144;BME280;68165;51.920;4.492;2023-06-26T09:52:55;68994.13;;;28.28;37.11
44144;BME280;68165;51.920;4.492;2023-06-26T09:55:20;69002.59;;;28.35;36.88
44144;BME280;68165;51.920;4.492;2023-06-26T09:57:53;69032.31;;;28.57;37.01
44144;BME280;68165;51.920;4.492;2023-06-26T10:00:21;69051.00;;;28.74;36.53
44144;BME280;68165;51.920;4.492;2023-06-26T10:02:46;69053.09;;;28.83;36.67
44144;BME280;68165;51.920;4.492;2023-06-26T10:05:12;69077.28;;;29.02;36.45
44144;BME280;68165;51.920;4.492;2023-06-26T10:07:39;69070.50;;;28.96;36.95
44144;BME280;68165;51.920;4.492;2023-06-26T10:10:05;69052.97;;;28.80;37.26
44144;BME280;68165;51.920;4.492;2023-06-26T10:12:32;69055.91;;;28.86;36.85
44144;BME280;68165;51.920;4.492;2023-06-26T10:14:59;69078.97;;;29.04;36.48
44144;BME280;68165;51.920;4.492;2023-06-26T10:17:34;69085.78;;;29.10;36.28
44144;BME280;68165;51.920;4.492;2023-06-26T10:20:03;69092.69;;;29.18;36.07
44144;BME280;68165;51.920;4.492;2023-06-26T10:22:33;69101.06;;;29.23;35.68
44144;BME280;68165;51.920;4.492;2023-06-26T10:25:00;69103.88;;;29.26;35.60
44144;BME280;68165;51.920;4.492;2023-06-26T10:27:36;69123.16;;;29.43;35.31
44144;BME280;68165;51.920;4.492;2023-06-26T10:30:08;69150.75;;;29.66;34.83
44144;BME280;68165;51.920;4.492;2023-06-26T10:32:35;69173.84;;;29.84;34.78
44144;BME280;68165;51.920;4.492;2023-06-26T10:35:01;69187.44;;;29.96;34.37
44144;BME280;68165;51.920;4.492;2023-06-26T10:37:45;69197.88;;;30.10;33.74
44144;BME280;68165;51.920;4.492;2023-06-26T10:40:12;69209.22;;;30.20;32.51
44144;BME280;68165;51.920;4.492;2023-06-26T10:42:39;69207.94;;;30.17;31.45
44144;BME280;68165;51.920;4.492;2023-06-26T10:45:13;69190.41;;;30.01;31.07
44144;BME280;68165;51.920;4.492;2023-06-26T10:47:40;69172.94;;;29.88;31.16
44144;BME280;68165;51.920;4.492;2023-06-26T10:50:26;69180.19;;;29.92;31.24
44144;BME280;68165;51.920;4.492;2023-06-26T10:53:07;69193.09;;;30.01;31.39
44144;BME280;68165;51.920;4.492;2023-06-26T10:55:33;69175.22;;;29.90;31.33
44144;BME280;68165;51.920;4.492;2023-06-26T10:57:59;69156.41;;;29.71;31.78
44144;BME280;68165;51.920;4.492;2023-06-26T11:00:24;69149.63;;;29.65;31.67
44144;BME280;68165;51.920;4.492;2023-06-26T11:02:50;69156.53;;;29.73;31.66
44144;BME280;68165;51.920;4.492;2023-06-26T11:05:33;69177.34;;;29.89;31.46
44144;BME280;68165;51.920;4.492;2023-06-26T11:08:05;69193.34;;;30.06;31.57
44144;BME280;68165;51.920;4.492;2023-06-26T11:10:48;69216.44;;;30.24;31.22
44144;BME280;68165;51.920;4.492;2023-06-26T11:13:13;69213.75;;;30.24;30.69
44144;BME280;68165;51.920;4.492;2023-06-26T11:15:42;69193.94;;;30.07;30.31
44144;BME280;68165;51.920;4.492;2023-06-26T11:18:08;69194.94;;;30.05;30.41
44144;BME280;68165;51.920;4.492;2023-06-26T11:20:33;69207.84;;;30.14;30.20
44144;BME280;68165;51.920;4.492;2023-06-26T11:22:59;69204.00;;;30.13;29.99
44144;BME280;68165;51.920;4.492;2023-06-26T11:25:24;69195.06;;;30.08;29.77
44144;BME280;68165;51.920;4.492;2023-06-26T11:27:53;69206.94;;;30.18;29.87
44144;BME280;68165;51.920;4.492;2023-06-26T11:30:25;69201.03;;;30.08;30.01
44144;BME280;68165;51.920;4.492;2023-06-26T11:32:51;69172.38;;;29.87;30.17
44144;BME280;68165;51.920;4.492;2023-06-26T11:35:23;69150.88;;;29.68;30.78
44144;BME280;68165;51.920;4.492;2023-06-26T11:37:56;69154.59;;;29.67;30.81
44144;BME280;68165;51.920;4.492;2023-06-26T11:40:23;69146.22;;;29.61;30.92
44144;BME280;68165;51.920;4.492;2023-06-26T11:42:52;69138.31;;;29.54;31.17
44144;BME280;68165;51.920;4.492;2023-06-26T11:45:19;69142.13;;;29.55;31.58
44144;BME280;68165;51.920;4.492;2023-06-26T11:47:45;69149.19;;;29.67;31.49
44144;BME280;68165;51.920;4.492;2023-06-26T11:50:17;69155.16;;;29.67;31.34
44144;BME280;68165;51.920;4.492;2023-06-26T11:52:43;69130.38;;;29.47;31.19
44144;BME280;68165;51.920;4.492;2023-06-26T11:55:09;69119.19;;;29.40;31.54
44144;BME280;68165;51.920;4.492;2023-06-26T11:57:36;69115.78;;;29.37;31.42
44144;BME280;68165;51.920;4.492;2023-06-26T12:00:14;69125.28;;;29.43;31.71
44144;BME280;68165;51.920;4.492;2023-06-26T12:02:41;69141.00;;;29.54;31.10
44144;BME280;68165;51.920;4.492;2023-06-26T12:05:08;69162.06;;;29.76;30.46
44144;BME280;68165;51.920;4.492;2023-06-26T12:07:33;69184.84;;;29.98;29.78
44144;BME280;68165;51.920;4.492;2023-06-26T12:10:00;69181.47;;;29.95;29.92
44144;BME280;68165;51.920;4.492;2023-06-26T12:12:26;69170.56;;;29.83;29.97
44144;BME280;68165;51.920;4.492;2023-06-26T12:14:52;69165.47;;;29.79;29.73
44144;BME280;68165;51.920;4.492;2023-06-26T12:17:17;69173.94;;;29.86;29.64
44144;BME280;68165;51.920;4.492;2023-06-26T12:19:47;69174.53;;;29.87;29.39
44144;BME280;68165;51.920;4.492;2023-06-26T12:22:16;69185.44;;;29.99;29.32
44144;BME280;68165;51.920;4.492;2023-06-26T12:24:43;69195.38;;;30.03;29.34
44144;BME280;68165;51.920;4.492;2023-06-26T12:27:10;69197.88;;;30.10;29.08
44144;BME280;68165;51.920;4.492;2023-06-26T12:29:40;69215.88;;;30.24;29.63
44144;BME280;68165;51.920;4.492;2023-06-26T12:32:09;69216.00;;;30.26;29.36
44144;BME280;68165;51.920;4.492;2023-06-26T12:34:37;69197.19;;;30.07;29.25
44144;BME280;68165;51.920;4.492;2023-06-26T12:37:06;69183.34;;;29.90;29.52
44144;BME280;68165;51.920;4.492;2023-06-26T12:39:52;69176.38;;;29.91;29.52
44144;BME280;68165;51.920;4.492;2023-06-26T12:42:23;69165.03;;;29.81;29.44
44144;BME280;68165;51.920;4.492;2023-06-26T12:44:49;69153.72;;;29.71;30.24
44144;BME280;68165;51.920;4.492;2023-06-26T12:47:16;69150.19;;;29.65;30.49
44144;BME280;68165;51.920;4.492;2023-06-26T12:49:43;69148.72;;;29.69;30.41
44144;BME280;68165;51.920;4.492;2023-06-26T12:52:12;69184.59;;;29.93;29.66
44144;BME280;68165;51.920;4.492;2023-06-26T12:54:42;69193.09;;;30.01;29.26
44144;BME280;68165;51.920;4.492;2023-06-26T12:57:08;69189.25;;;30.00;29.56
44144;BME280;68165;51.920;4.492;2023-06-26T12:59:37;69195.06;;;30.08;29.84
44144;BME280;68165;51.920;4.492;2023-06-26T13:02:02;69211.47;;;30.22;29.55
44144;BME280;68165;51.920;4.492;2023-06-26T13:04:28;69201.28;;;30.13;30.02